Terminal Aerodrome Forecast
Issued by NWS

Home | Current Version | Previous Version | Text Only | Print | Product List | Glossary On
Versions: 1 2 3 4 5 6 7 8 9 10 11 12 13 14 15 16 17 18 19 20 21 22 23 24 25 26 27 28 29 30 31
000
FTUS43 KGRB 280240 AAB
TAFRHI
TAF AMD
KRHI 280240Z 2803/2824 13007KT P6SM SCT009 OVC040
      TEMPO 2803/2806 3SM -SHRA BR BKN009
     FM280600 13004KT 4SM BR OVC003
     FM281500 17007KT 3SM SHRA OVC003
     FM281600 17008KT 5SM SHRA OVC010
     FM281700 17008KT P6SM SHRA OVC015
     FM281900 17008KT P6SM SHRA BKN040=

USA.gov is the U.S. government's official web portal to all federal, state and local government web resources and services.